sensor_id;sensor_type;location;lat;lon;timestamp;P1;durP1;ratioP1;P2;durP2;ratioP2
37169;SDS011;23062;13.952;100.608;2023-04-25T00:07:27;43.00;;;34.00;;
37169;SDS011;23062;13.952;100.608;2023-04-25T00:31:13;38.00;;;28.00;;
37169;SDS011;23062;13.952;100.608;2023-04-25T00:35:51;39.00;;;31.00;;
37169;SDS011;23062;13.952;100.608;2023-04-25T00:50:28;41.00;;;30.00;;
37169;SDS011;23062;13.952;100.608;2023-04-25T01:10:03;40.00;;;30.00;;
37169;SDS011;23062;13.952;100.608;2023-04-25T01:24:32;36.00;;;28.00;;
37169;SDS011;23062;13.952;100.608;2023-04-25T01:34:17;34.00;;;25.00;;
37169;SDS011;23062;13.952;100.608;2023-04-25T01:58:32;33.00;;;24.00;;
37169;SDS011;23062;13.952;100.608;2023-04-25T02:08:18;30.00;;;22.00;;
37169;SDS011;23062;13.952;100.608;2023-04-25T02:23:12;30.00;;;22.00;;
37169;SDS011;23062;13.952;100.608;2023-04-25T02:28:02;33.00;;;25.00;;
37169;SDS011;23062;13.952;100.608;2023-04-25T02:32:51;30.00;;;22.00;;
37169;SDS011;23062;13.952;100.608;2023-04-25T03:12:19;34.00;;;26.00;;
37169;SDS011;23062;13.952;100.608;2023-04-25T03:21:43;34.00;;;27.00;;
37169;SDS011;23062;13.952;100.608;2023-04-25T03:26:10;33.00;;;26.00;;
37169;SDS011;23062;13.952;100.608;2023-04-25T03:30:36;36.00;;;28.00;;
37169;SDS011;23062;13.952;100.608;2023-04-25T03:35:02;36.00;;;26.00;;
37169;SDS011;23062;13.952;100.608;2023-04-25T03:39:29;38.00;;;28.00;;
37169;SDS011;23062;13.952;100.608;2023-04-25T03:43:54;38.00;;;28.00;;
37169;SDS011;23062;13.952;100.608;2023-04-25T03:48:20;35.00;;;26.00;;
37169;SDS011;23062;13.952;100.608;2023-04-25T03:52:50;39.00;;;30.00;;
37169;SDS011;23062;13.952;100.608;2023-04-25T03:57:16;35.00;;;27.00;;
37169;SDS011;23062;13.952;100.608;2023-04-25T04:01:42;35.00;;;27.00;;
37169;SDS011;23062;13.952;100.608;2023-04-25T04:06:09;37.00;;;27.00;;
37169;SDS011;23062;13.952;100.608;2023-04-25T04:10:36;36.00;;;28.00;;
37169;SDS011;23062;13.952;100.608;2023-04-25T04:15:06;37.00;;;28.00;;
37169;SDS011;23062;13.952;100.608;2023-04-25T04:19:33;40.00;;;29.00;;
37169;SDS011;23062;13.952;100.608;2023-04-25T04:24:02;39.00;;;28.00;;
37169;SDS011;23062;13.952;100.608;2023-04-25T04:28:32;37.00;;;28.00;;
37169;SDS011;23062;13.952;100.608;2023-04-25T04:32:58;35.00;;;26.00;;
37169;SDS011;23062;13.952;100.608;2023-04-25T04:37:25;37.00;;;29.00;;
37169;SDS011;23062;13.952;100.608;2023-04-25T04:41:51;37.00;;;28.00;;
37169;SDS011;23062;13.952;100.608;2023-04-25T04:46:16;38.00;;;29.00;;
37169;SDS011;23062;13.952;100.608;2023-04-25T04:50:45;39.00;;;29.00;;
37169;SDS011;23062;13.952;100.608;2023-04-25T04:55:13;37.00;;;28.00;;
37169;SDS011;23062;13.952;100.608;2023-04-25T04:59:39;36.00;;;27.00;;
37169;SDS011;23062;13.952;100.608;2023-04-25T05:04:05;36.00;;;27.00;;
37169;SDS011;23062;13.952;100.608;2023-04-25T05:08:31;39.00;;;30.00;;
37169;SDS011;23062;13.952;100.608;2023-04-25T05:13:03;37.00;;;27.00;;
37169;SDS011;23062;13.952;100.608;2023-04-25T05:17:39;34.00;;;26.00;;
37169;SDS011;23062;13.952;100.608;2023-04-25T05:22:05;37.00;;;29.00;;
37169;SDS011;23062;13.952;100.608;2023-04-25T05:26:30;37.00;;;29.00;;
37169;SDS011;23062;13.952;100.608;2023-04-25T05:30:57;39.00;;;29.00;;
37169;SDS011;23062;13.952;100.608;2023-04-25T05:35:25;33.00;;;26.00;;
37169;SDS011;23062;13.952;100.608;2023-04-25T05:39:53;39.00;;;30.00;;
37169;SDS011;23062;13.952;100.608;2023-04-25T05:44:19;38.00;;;28.00;;
37169;SDS011;23062;13.952;100.608;2023-04-25T05:48:46;42.00;;;32.00;;
37169;SDS011;23062;13.952;100.608;2023-04-25T05:53:12;37.00;;;29.00;;
37169;SDS011;23062;13.952;100.608;2023-04-25T05:57:39;37.00;;;28.00;;
37169;SDS011;23062;13.952;100.608;2023-04-25T06:02:06;39.00;;;31.00;;
37169;SDS011;23062;13.952;100.608;2023-04-25T06:06:38;39.00;;;29.00;;
37169;SDS011;23062;13.952;100.608;2023-04-25T06:11:05;39.00;;;27.07;;
37169;SDS011;23062;13.952;100.608;2023-04-25T06:15:31;38.00;;;29.00;;
37169;SDS011;23062;13.952;100.608;2023-04-25T06:19:58;42.00;;;33.00;;
37169;SDS011;23062;13.952;100.608;2023-04-25T06:24:30;43.00;;;31.00;;
37169;SDS011;23062;13.952;100.608;2023-04-25T06:28:56;38.00;;;30.00;;
37169;SDS011;23062;13.952;100.608;2023-04-25T06:33:23;36.00;;;28.00;;
37169;SDS011;23062;13.952;100.608;2023-04-25T06:37:57;44.00;;;32.00;;
37169;SDS011;23062;13.952;100.608;2023-04-25T06:42:23;43.00;;;34.00;;
37169;SDS011;23062;13.952;100.608;2023-04-25T06:46:57;42.00;;;31.00;;
37169;SDS011;23062;13.952;100.608;2023-04-25T06:51:25;43.00;;;33.00;;
37169;SDS011;23062;13.952;100.608;2023-04-25T06:55:57;37.00;;;29.00;;
37169;SDS011;23062;13.952;100.608;2023-04-25T07:00:26;42.00;;;32.00;;
37169;SDS011;23062;13.952;100.608;2023-04-25T07:04:51;38.00;;;30.00;;
37169;SDS011;23062;13.952;100.608;2023-04-25T07:09:21;40.00;;;30.00;;
37169;SDS011;23062;13.952;100.608;2023-04-25T07:13:48;43.00;;;32.00;;
37169;SDS011;23062;13.952;100.608;2023-04-25T07:18:14;39.00;;;29.00;;
37169;SDS011;23062;13.952;100.608;2023-04-25T07:22:43;43.00;;;32.00;;
37169;SDS011;23062;13.952;100.608;2023-04-25T07:27:16;40.00;;;30.00;;
37169;SDS011;23062;13.952;100.608;2023-04-25T07:31:42;43.00;;;27.20;;
37169;SDS011;23062;13.952;100.608;2023-04-25T07:36:08;46.00;;;34.00;;
37169;SDS011;23062;13.952;100.608;2023-04-25T07:40:40;42.00;;;32.00;;
37169;SDS011;23062;13.952;100.608;2023-04-25T07:45:09;44.00;;;32.00;;
37169;SDS011;23062;13.952;100.608;2023-04-25T07:49:38;42.00;;;33.00;;
37169;SDS011;23062;13.952;100.608;2023-04-25T07:54:07;46.00;;;34.00;;
37169;SDS011;23062;13.952;100.608;2023-04-25T07:58:34;44.00;;;33.00;;
37169;SDS011;23062;13.952;100.608;2023-04-25T08:03:01;42.00;;;33.00;;
37169;SDS011;23062;13.952;100.608;2023-04-25T08:07:28;43.00;;;32.00;;
37169;SDS011;23062;13.952;100.608;2023-04-25T08:11:54;37.00;;;28.00;;
37169;SDS011;23062;13.952;100.608;2023-04-25T08:16:20;42.00;;;31.00;;
37169;SDS011;23062;13.952;100.608;2023-04-25T08:20:45;38.00;;;30.00;;
37169;SDS011;23062;13.952;100.608;2023-04-25T08:25:18;39.00;;;29.00;;
37169;SDS011;23062;13.952;100.608;2023-04-25T08:29:48;40.00;;;30.00;;
37169;SDS011;23062;13.952;100.608;2023-04-25T08:34:16;42.00;;;32.00;;
37169;SDS011;23062;13.952;100.608;2023-04-25T08:43:19;36.00;;;26.00;;
37169;SDS011;23062;13.952;100.608;2023-04-25T08:47:45;29.00;;;21.00;;
37169;SDS011;23062;13.952;100.608;2023-04-25T08:52:11;27.00;;;20.00;;
37169;SDS011;23062;13.952;100.608;2023-04-25T08:56:38;26.00;;;20.00;;
37169;SDS011;23062;13.952;100.608;2023-04-25T09:01:06;29.00;;;21.00;;
37169;SDS011;23062;13.952;100.608;2023-04-25T09:05:35;32.00;;;23.00;;
37169;SDS011;23062;13.952;100.608;2023-04-25T09:10:04;25.00;;;19.00;;
37169;SDS011;23062;13.952;100.608;2023-04-25T09:14:31;25.00;;;18.00;;
37169;SDS011;23062;13.952;100.608;2023-04-25T09:19:03;21.00;;;16.00;;
37169;SDS011;23062;13.952;100.608;2023-04-25T09:28:10;20.00;;;14.00;;
37169;SDS011;23062;13.952;100.608;2023-04-25T09:32:36;25.00;;;15.60;;
37169;SDS011;23062;13.952;100.608;2023-04-25T09:37:01;17.00;;;13.00;;
37169;SDS011;23062;13.952;100.608;2023-04-25T09:41:27;23.00;;;17.00;;
37169;SDS011;23062;13.952;100.608;2023-04-25T09:45:53;21.00;;;16.00;;
37169;SDS011;23062;13.952;100.608;2023-04-25T09:50:23;24.00;;;18.00;;
37169;SDS011;23062;13.952;100.608;2023-04-25T09:54:51;20.00;;;15.00;;
37169;SDS011;23062;13.952;100.608;2023-04-25T09:59:16;20.00;;;15.00;;
37169;SDS011;23062;13.952;100.608;2023-04-25T10:03:50;21.00;;;15.00;;
37169;SDS011;23062;13.952;100.608;2023-04-25T10:08:18;19.00;;;14.00;;
37169;SDS011;23062;13.952;100.608;2023-04-25T10:12:49;17.00;;;12.00;;
37169;SDS011;23062;13.952;100.608;2023-04-25T10:17:14;15.00;;;11.00;;
37169;SDS011;23062;13.952;100.608;2023-04-25T10:21:44;16.00;;;12.00;;
37169;SDS011;23062;13.952;100.608;2023-04-25T10:26:12;17.00;;;12.00;;
37169;SDS011;23062;13.952;100.608;2023-04-25T10:30:56;15.00;;;10.00;;
37169;SDS011;23062;13.952;100.608;2023-04-25T10:35:29;14.00;;;10.00;;
37169;SDS011;23062;13.952;100.608;2023-04-25T10:39:57;16.00;;;12.00;;
37169;SDS011;23062;13.952;100.608;2023-04-25T10:44:27;16.00;;;11.00;;
37169;SDS011;23062;13.952;100.608;2023-04-25T10:48:54;13.00;;;10.00;;
37169;SDS011;23062;13.952;100.608;2023-04-25T10:53:24;14.00;;;10.00;;
37169;SDS011;23062;13.952;100.608;2023-04-25T10:57:53;15.00;;;10.00;;
37169;SDS011;23062;13.952;100.608;2023-04-25T11:02:21;16.00;;;12.00;;
37169;SDS011;23062;13.952;100.608;2023-04-25T11:11:32;18.00;;;14.00;;
37169;SDS011;23062;13.952;100.608;2023-04-25T11:16:09;28.00;;;22.00;;
37169;SDS011;23062;13.952;100.608;2023-04-25T11:20:34;36.00;;;26.00;;
37169;SDS011;23062;13.952;100.608;2023-04-25T11:25:04;38.00;;;29.00;;
37169;SDS011;23062;13.952;100.608;2023-04-25T11:29:31;39.00;;;29.00;;
37169;SDS011;23062;13.952;100.608;2023-04-25T11:33:58;37.00;;;29.00;;
37169;SDS011;23062;13.952;100.608;2023-04-25T11:38:28;37.00;;;28.00;;
37169;SDS011;23062;13.952;100.608;2023-04-25T11:42:55;38.00;;;28.00;;
37169;SDS011;23062;13.952;100.608;2023-04-25T11:47:27;38.00;;;29.00;;
37169;SDS011;23062;13.952;100.608;2023-04-25T11:51:58;34.00;;;25.00;;
37169;SDS011;23062;13.952;100.608;2023-04-25T11:56:25;36.00;;;27.00;;
37169;SDS011;23062;13.952;100.608;2023-04-25T12:00:57;31.00;;;22.00;;
37169;SDS011;23062;13.952;100.608;2023-04-25T12:05:27;26.00;;;19.00;;
37169;SDS011;23062;13.952;100.608;2023-04-25T12:09:55;22.00;;;16.00;;
37169;SDS011;23062;13.952;100.608;2023-04-25T12:14:25;21.00;;;16.00;;
37169;SDS011;23062;13.952;100.608;2023-04-25T12:18:53;24.00;;;18.00;;
37169;SDS011;23062;13.952;100.608;2023-04-25T12:23:30;22.00;;;16.00;;
37169;SDS011;23062;13.952;100.608;2023-04-25T12:28:08;22.00;;;17.00;;
37169;SDS011;23062;13.952;100.608;2023-04-25T12:32:48;22.00;;;17.00;;
37169;SDS011;23062;13.952;100.608;2023-04-25T12:37:14;20.00;;;15.00;;
37169;SDS011;23062;13.952;100.608;2023-04-25T12:41:40;22.00;;;17.00;;
37169;SDS011;23062;13.952;100.608;2023-04-25T12:46:07;23.00;;;18.00;;
37169;SDS011;23062;13.952;100.608;2023-04-25T12:50:36;25.00;;;19.00;;
37169;SDS011;23062;13.952;100.608;2023-04-25T12:55:03;29.00;;;22.00;;
37169;SDS011;23062;13.952;100.608;2023-04-25T12:59:34;26.00;;;19.00;;
37169;SDS011;23062;13.952;100.608;2023-04-25T13:04:02;26.00;;;20.00;;
37169;SDS011;23062;13.952;100.608;2023-04-25T13:08:28;24.00;;;18.00;;
37169;SDS011;23062;13.952;100.608;2023-04-25T13:12:57;31.00;;;22.00;;
37169;SDS011;23062;13.952;100.608;2023-04-25T13:17:24;29.00;;;22.00;;
37169;SDS011;23062;13.952;100.608;2023-04-25T13:21:52;26.00;;;20.00;;
37169;SDS011;23062;13.952;100.608;2023-04-25T13:26:20;25.00;;;19.00;;
37169;SDS011;23062;13.952;100.608;2023-04-25T13:30:51;24.00;;;18.00;;
37169;SDS011;23062;13.952;100.608;2023-04-25T13:35:26;20.00;;;15.00;;
37169;SDS011;23062;13.952;100.608;2023-04-25T13:39:55;25.00;;;19.00;;
37169;SDS011;23062;13.952;100.608;2023-04-25T13:44:25;23.00;;;18.00;;
37169;SDS011;23062;13.952;100.608;2023-04-25T13:48:52;27.00;;;19.00;;
37169;SDS011;23062;13.952;100.608;2023-04-25T13:53:19;27.00;;;20.00;;
37169;SDS011;23062;13.952;100.608;2023-04-25T13:57:45;27.00;;;20.00;;
37169;SDS011;23062;13.952;100.608;2023-04-25T14:02:11;19.00;;;15.00;;
37169;SDS011;23062;13.952;100.608;2023-04-25T14:06:37;24.00;;;17.00;;
37169;SDS011;23062;13.952;100.608;2023-04-25T14:11:03;25.00;;;15.60;;
37169;SDS011;23062;13.952;100.608;2023-04-25T14:15:29;21.00;;;16.00;;
37169;SDS011;23062;13.952;100.608;2023-04-25T14:19:59;20.00;;;15.00;;
37169;SDS011;23062;13.952;100.608;2023-04-25T14:24:26;20.00;;;15.00;;
37169;SDS011;23062;13.952;100.608;2023-04-25T14:28:52;22.00;;;16.00;;
37169;SDS011;23062;13.952;100.608;2023-04-25T14:33:18;21.00;;;15.00;;
37169;SDS011;23062;13.952;100.608;2023-04-25T14:37:44;18.00;;;14.00;;
37169;SDS011;23062;13.952;100.608;2023-04-25T14:42:10;20.00;;;15.00;;
37169;SDS011;23062;13.952;100.608;2023-04-25T14:46:36;19.00;;;14.00;;
37169;SDS011;23062;13.952;100.608;2023-04-25T14:51:04;21.00;;;15.00;;
37169;SDS011;23062;13.952;100.608;2023-04-25T14:55:32;22.00;;;17.00;;
37169;SDS011;23062;13.952;100.608;2023-04-25T15:00:06;17.00;;;13.00;;
37169;SDS011;23062;13.952;100.608;2023-04-25T15:04:39;19.00;;;14.00;;
37169;SDS011;23062;13.952;100.608;2023-04-25T15:09:08;19.00;;;14.00;;
37169;SDS011;23062;13.952;100.608;2023-04-25T15:13:35;19.00;;;13.00;;
37169;SDS011;23062;13.952;100.608;2023-04-25T15:18:03;20.00;;;14.00;;
37169;SDS011;23062;13.952;100.608;2023-04-25T15:22:37;17.00;;;13.00;;
37169;SDS011;23062;13.952;100.608;2023-04-25T15:27:03;19.00;;;15.00;;
37169;SDS011;23062;13.952;100.608;2023-04-25T15:31:30;16.00;;;12.00;;
37169;SDS011;23062;13.952;100.608;2023-04-25T15:35:56;17.00;;;12.00;;
37169;SDS011;23062;13.952;100.608;2023-04-25T15:40:25;17.00;;;12.00;;
37169;SDS011;23062;13.952;100.608;2023-04-25T15:44:53;14.00;;;10.00;;
37169;SDS011;23062;13.952;100.608;2023-04-25T15:49:20;15.00;;;11.00;;
37169;SDS011;23062;13.952;100.608;2023-04-25T15:53:46;16.00;;;11.00;;
37169;SDS011;23062;13.952;100.608;2023-04-25T15:58:12;17.00;;;12.13;;
37169;SDS011;23062;13.952;100.608;2023-04-25T16:02:38;14.00;;;11.00;;
37169;SDS011;23062;13.952;100.608;2023-04-25T16:07:06;16.00;;;12.00;;
37169;SDS011;23062;13.952;100.608;2023-04-25T16:11:31;14.00;;;10.00;;
37169;SDS011;23062;13.952;100.608;2023-04-25T16:15:57;13.00;;;10.00;;
37169;SDS011;23062;13.952;100.608;2023-04-25T16:20:23;14.00;;;10.00;;
37169;SDS011;23062;13.952;100.608;2023-04-25T16:24:49;13.00;;;9.00;;
37169;SDS011;23062;13.952;100.608;2023-04-25T16:29:14;13.00;;;10.00;;
37169;SDS011;23062;13.952;100.608;2023-04-25T16:33:40;16.00;;;11.00;;
37169;SDS011;23062;13.952;100.608;2023-04-25T16:38:06;14.00;;;11.00;;
37169;SDS011;23062;13.952;100.608;2023-04-25T16:42:32;15.00;;;11.00;;
37169;SDS011;23062;13.952;100.608;2023-04-25T16:46:58;14.00;;;11.00;;
37169;SDS011;23062;13.952;100.608;2023-04-25T16:51:24;12.00;;;9.00;;
37169;SDS011;23062;13.952;100.608;2023-04-25T16:55:57;18.00;;;12.13;;
37169;SDS011;23062;13.952;100.608;2023-04-25T17:00:23;15.00;;;10.00;;
37169;SDS011;23062;13.952;100.608;2023-04-25T17:04:48;16.00;;;12.00;;
37169;SDS011;23062;13.952;100.608;2023-04-25T17:09:14;16.00;;;11.00;;
37169;SDS011;23062;13.952;100.608;2023-04-25T17:13:41;16.00;;;12.00;;
37169;SDS011;23062;13.952;100.608;2023-04-25T17:18:07;15.00;;;11.00;;
37169;SDS011;23062;13.952;100.608;2023-04-25T17:22:35;14.00;;;11.00;;
37169;SDS011;23062;13.952;100.608;2023-04-25T17:27:02;18.00;;;14.00;;
37169;SDS011;23062;13.952;100.608;2023-04-25T17:31:30;19.00;;;14.00;;
37169;SDS011;23062;13.952;100.608;2023-04-25T17:35:56;16.00;;;12.00;;
37169;SDS011;23062;13.952;100.608;2023-04-25T17:40:22;16.00;;;12.00;;
37169;SDS011;23062;13.952;100.608;2023-04-25T17:44:54;16.00;;;12.00;;
37169;SDS011;23062;13.952;100.608;2023-04-25T17:49:19;20.00;;;14.00;;
37169;SDS011;23062;13.952;100.608;2023-04-25T17:53:45;21.00;;;15.00;;
37169;SDS011;23062;13.952;100.608;2023-04-25T17:58:10;20.00;;;14.00;;
37169;SDS011;23062;13.952;100.608;2023-04-25T18:02:36;21.00;;;15.00;;
37169;SDS011;23062;13.952;100.608;2023-04-25T18:07:02;15.00;;;11.00;;
37169;SDS011;23062;13.952;100.608;2023-04-25T18:11:27;17.00;;;13.00;;
37169;SDS011;23062;13.952;100.608;2023-04-25T18:15:53;17.00;;;12.00;;
37169;SDS011;23062;13.952;100.608;2023-04-25T18:20:20;21.00;;;15.00;;
37169;SDS011;23062;13.952;100.608;2023-04-25T18:24:49;15.00;;;11.00;;
37169;SDS011;23062;13.952;100.608;2023-04-25T18:29:15;17.00;;;12.00;;
37169;SDS011;23062;13.952;100.608;2023-04-25T18:33:42;15.00;;;11.00;;
37169;SDS011;23062;13.952;100.608;2023-04-25T18:38:08;16.00;;;12.00;;
37169;SDS011;23062;13.952;100.608;2023-04-25T18:42:35;15.00;;;12.00;;
37169;SDS011;23062;13.952;100.608;2023-04-25T18:47:01;15.00;;;12.00;;
37169;SDS011;23062;13.952;100.608;2023-04-25T18:51:29;19.00;;;15.00;;
37169;SDS011;23062;13.952;100.608;2023-04-25T18:55:54;20.00;;;14.00;;
37169;SDS011;23062;13.952;100.608;2023-04-25T19:00:29;17.00;;;13.00;;
37169;SDS011;23062;13.952;100.608;2023-04-25T19:05:02;18.00;;;13.00;;
37169;SDS011;23062;13.952;100.608;2023-04-25T19:09:35;19.00;;;13.00;;
37169;SDS011;23062;13.952;100.608;2023-04-25T19:14:01;21.00;;;15.00;;
37169;SDS011;23062;13.952;100.608;2023-04-25T19:18:27;18.00;;;13.00;;
37169;SDS011;23062;13.952;100.608;2023-04-25T19:22:54;17.00;;;12.00;;
37169;SDS011;23062;13.952;100.608;2023-04-25T19:27:20;17.00;;;13.00;;
37169;SDS011;23062;13.952;100.608;2023-04-25T19:31:45;18.00;;;14.00;;
37169;SDS011;23062;13.952;100.608;2023-04-25T19:36:14;18.00;;;13.00;;
37169;SDS011;23062;13.952;100.608;2023-04-25T19:40:40;21.00;;;15.00;;
37169;SDS011;23062;13.952;100.608;2023-04-25T19:45:05;22.00;;;16.00;;
37169;SDS011;23062;13.952;100.608;2023-04-25T19:49:34;22.00;;;17.00;;
37169;SDS011;23062;13.952;100.608;2023-04-25T19:54:00;22.00;;;17.00;;
37169;SDS011;23062;13.952;100.608;2023-04-25T19:58:26;19.00;;;15.00;;
37169;SDS011;23062;13.952;100.608;2023-04-25T20:02:54;21.00;;;16.00;;
37169;SDS011;23062;13.952;100.608;2023-04-25T20:07:26;25.00;;;18.00;;
37169;SDS011;23062;13.952;100.608;2023-04-25T20:11:53;28.00;;;20.00;;
37169;SDS011;23062;13.952;100.608;2023-04-25T20:16:18;29.00;;;21.00;;
37169;SDS011;23062;13.952;100.608;2023-04-25T20:20:45;27.00;;;20.00;;
37169;SDS011;23062;13.952;100.608;2023-04-25T20:25:14;28.00;;;22.00;;
37169;SDS011;23062;13.952;100.608;2023-04-25T20:29:39;25.00;;;19.00;;
37169;SDS011;23062;13.952;100.608;2023-04-25T20:34:06;29.00;;;23.00;;
37169;SDS011;23062;13.952;100.608;2023-04-25T20:38:36;25.00;;;20.00;;
37169;SDS011;23062;13.952;100.608;2023-04-25T20:43:12;27.00;;;20.00;;
37169;SDS011;23062;13.952;100.608;2023-04-25T20:47:35;30.00;;;22.00;;
37169;SDS011;23062;13.952;100.608;2023-04-25T20:52:04;29.00;;;22.00;;
37169;SDS011;23062;13.952;100.608;2023-04-25T20:56:33;26.00;;;20.00;;
37169;SDS011;23062;13.952;100.608;2023-04-25T21:01:02;24.00;;;18.00;;
37169;SDS011;23062;13.952;100.608;2023-04-25T21:05:29;28.00;;;21.00;;
37169;SDS011;23062;13.952;100.608;2023-04-25T21:09:57;30.00;;;23.00;;
37169;SDS011;23062;13.952;100.608;2023-04-25T21:14:23;29.00;;;21.47;;
37169;SDS011;23062;13.952;100.608;2023-04-25T21:18:51;49.00;;;39.00;;
37169;SDS011;23062;13.952;100.608;2023-04-25T21:23:16;49.00;;;36.00;;
37169;SDS011;23062;13.952;100.608;2023-04-25T21:27:43;36.00;;;28.00;;
37169;SDS011;23062;13.952;100.608;2023-04-25T21:32:11;33.00;;;25.00;;
37169;SDS011;23062;13.952;100.608;2023-04-25T21:36:48;35.00;;;27.00;;
37169;SDS011;23062;13.952;100.608;2023-04-25T21:41:13;38.00;;;30.00;;
37169;SDS011;23062;13.952;100.608;2023-04-25T21:45:48;37.00;;;27.00;;
37169;SDS011;23062;13.952;100.608;2023-04-25T21:50:09;33.00;;;24.00;;
37169;SDS011;23062;13.952;100.608;2023-04-25T21:54:36;39.00;;;30.00;;
37169;SDS011;23062;13.952;100.608;2023-04-25T21:59:04;64.00;;;47.00;;
37169;SDS011;23062;13.952;100.608;2023-04-25T22:03:38;37.00;;;28.00;;
37169;SDS011;23062;13.952;100.608;2023-04-25T22:08:04;29.00;;;23.00;;
37169;SDS011;23062;13.952;100.608;2023-04-25T22:12:30;30.00;;;22.00;;
37169;SDS011;23062;13.952;100.608;2023-04-25T22:17:06;29.00;;;22.00;;
37169;SDS011;23062;13.952;100.608;2023-04-25T22:21:27;25.00;;;19.00;;
37169;SDS011;23062;13.952;100.608;2023-04-25T22:26:00;26.00;;;20.00;;
37169;SDS011;23062;13.952;100.608;2023-04-25T22:30:26;29.00;;;21.00;;
37169;SDS011;23062;13.952;100.608;2023-04-25T22:34:59;26.00;;;20.00;;
37169;SDS011;23062;13.952;100.608;2023-04-25T22:39:27;27.00;;;21.00;;
37169;SDS011;23062;13.952;100.608;2023-04-25T22:43:52;28.00;;;22.00;;
37169;SDS011;23062;13.952;100.608;2023-04-25T22:48:19;26.00;;;20.00;;
37169;SDS011;23062;13.952;100.608;2023-04-25T22:52:47;29.00;;;23.00;;
37169;SDS011;23062;13.952;100.608;2023-04-25T22:57:13;31.00;;;23.00;;
37169;SDS011;23062;13.952;100.608;2023-04-25T23:01:42;33.00;;;24.00;;
37169;SDS011;23062;13.952;100.608;2023-04-25T23:06:07;30.00;;;23.00;;
37169;SDS011;23062;13.952;100.608;2023-04-25T23:10:33;35.00;;;26.00;;
37169;SDS011;23062;13.952;100.608;2023-04-25T23:14:59;29.00;;;22.00;;
37169;SDS011;23062;13.952;100.608;2023-04-25T23:19:26;33.00;;;25.00;;
37169;SDS011;23062;13.952;100.608;2023-04-25T23:23:55;31.00;;;24.00;;
37169;SDS011;23062;13.952;100.608;2023-04-25T23:28:21;29.00;;;23.00;;
37169;SDS011;23062;13.952;100.608;2023-04-25T23:32:49;29.00;;;22.00;;
37169;SDS011;23062;13.952;100.608;2023-04-25T23:37:19;30.00;;;23.00;;
37169;SDS011;23062;13.952;100.608;2023-04-25T23:41:45;39.00;;;29.00;;
37169;SDS011;23062;13.952;100.608;2023-04-25T23:46:10;41.00;;;30.00;;
37169;SDS011;23062;13.952;100.608;2023-04-25T23:50:36;37.00;;;27.00;;
37169;SDS011;23062;13.952;100.608;2023-04-25T23:55:02;33.00;;;25.00;;
37169;SDS011;23062;13.952;100.608;2023-04-25T23:59:30;34.00;;;25.00;;
